createdAt,value
2018-01-26T00:02:21.188Z,95.75
2018-01-26T00:04:48.645Z,95.78
2018-01-26T00:07:16.108Z,96.08
2018-01-26T00:09:43.553Z,96.29
2018-01-26T00:12:11.194Z,96.63
2018-01-26T00:14:38.651Z,97.12
2018-01-26T00:17:06.092Z,96.57
2018-01-26T00:19:33.552Z,96.72
2018-01-26T00:22:00.997Z,96.37
2018-01-26T00:24:28.682Z,96.32
2018-01-26T00:26:56.121Z,96.30
2018-01-26T00:29:23.561Z,94.64
2018-01-26T00:31:51.017Z,95.15
2018-01-26T00:34:18.454Z,94.96
2018-01-26T00:36:46.067Z,94.12
2018-01-26T00:39:13.508Z,92.89
2018-01-26T00:41:40.945Z,91.51
2018-01-26T00:44:08.432Z,91.31
2018-01-26T00:46:35.869Z,91.65
2018-01-26T00:49:03.341Z,92.67
2018-01-26T00:51:30.785Z,92.21
2018-01-26T00:53:58.229Z,91.67
2018-01-26T00:56:25.688Z,93.21
2018-01-26T00:58:53.167Z,92.72
2018-01-26T01:01:21.143Z,93.04
2018-01-26T01:03:48.636Z,93.88
2018-01-26T01:06:16.292Z,94.00
2018-01-26T01:08:43.752Z,94.77
2018-01-26T01:11:11.185Z,94.97
2018-01-26T01:13:38.938Z,94.84
2018-01-26T01:16:06.377Z,95.38
2018-01-26T01:18:33.808Z,95.17
2018-01-26T01:21:01.282Z,95.51
2018-01-26T01:23:28.718Z,95.53
2018-01-26T01:25:56.436Z,95.91
2018-01-26T01:28:23.888Z,95.96
2018-01-26T01:30:51.324Z,95.83
2018-01-26T01:33:18.777Z,96.22
2018-01-26T01:35:46.212Z,95.98
2018-01-26T01:38:13.708Z,95.92
2018-01-26T01:40:41.141Z,95.38
2018-01-26T01:43:08.576Z,94.46
2018-01-26T01:45:36.081Z,95.14
2018-01-26T01:48:03.517Z,95.35
2018-01-26T01:50:30.977Z,95.43
2018-01-26T01:52:58.420Z,95.52
2018-01-26T01:55:25.852Z,95.46
2018-01-26T01:57:53.309Z,95.46
2018-01-26T02:00:20.744Z,95.57
2018-01-26T02:02:48.572Z,95.99
2018-01-26T02:05:16.005Z,96.39
2018-01-26T02:07:43.461Z,96.13
2018-01-26T02:10:10.925Z,96.10
2018-01-26T02:12:38.357Z,96.32
2018-01-26T02:15:05.850Z,96.34
2018-01-26T02:17:33.842Z,96.46
2018-01-26T02:20:01.305Z,96.31
2018-01-26T02:22:28.805Z,97.16
2018-01-26T02:24:56.264Z,97.39
2018-01-26T02:27:23.852Z,97.59
2018-01-26T02:29:51.292Z,97.46
2018-01-26T02:32:18.733Z,96.87
2018-01-26T02:34:46.190Z,96.65
2018-01-26T02:37:13.636Z,96.40
2018-01-26T02:39:41.340Z,96.43
2018-01-26T02:42:08.990Z,96.39
2018-01-26T02:44:36.433Z,96.51
2018-01-26T02:47:03.923Z,96.24
2018-01-26T02:49:31.362Z,96.36
2018-01-26T02:51:58.849Z,96.32
2018-01-26T02:54:26.289Z,96.24
2018-01-26T02:56:53.733Z,96.42
2018-01-26T02:59:21.188Z,96.34
2018-01-26T03:01:48.632Z,96.09
2018-01-26T03:04:16.421Z,96.14
2018-01-26T03:06:43.861Z,96.38
2018-01-26T03:09:11.298Z,96.45
2018-01-26T03:11:38.761Z,96.43
2018-01-26T03:14:06.197Z,96.40
2018-01-26T03:16:33.896Z,96.12
2018-01-26T03:19:01.338Z,96.31
2018-01-26T03:21:28.784Z,95.91
2018-01-26T03:23:56.245Z,95.43
2018-01-26T03:26:23.696Z,95.87
2018-01-26T03:28:51.421Z,95.90
2018-01-26T03:31:18.865Z,95.69
2018-01-26T03:33:46.324Z,95.67
2018-01-26T03:36:13.784Z,95.79
2018-01-26T03:38:41.465Z,95.85
2018-01-26T03:41:09.284Z,96.35
2018-01-26T03:43:36.728Z,96.02
2018-01-26T03:46:04.160Z,95.66
2018-01-26T03:48:31.620Z,96.52
2018-01-26T03:50:59.073Z,96.44
2018-01-26T03:53:26.562Z,95.95
2018-01-26T03:55:53.997Z,95.60
2018-01-26T03:58:21.442Z,95.82
2018-01-26T04:00:48.909Z,95.38
2018-01-26T04:03:16.344Z,95.44
2018-01-26T04:05:44.069Z,95.34
2018-01-26T04:08:11.505Z,95.92
2018-01-26T04:10:38.949Z,95.77
2018-01-26T04:13:06.412Z,95.36
2018-01-26T04:15:33.849Z,95.49
2018-01-26T04:18:01.585Z,95.61
2018-01-26T04:20:29.021Z,95.24
2018-01-26T04:22:56.463Z,95.33
2018-01-26T04:25:23.925Z,95.28
2018-01-26T04:27:51.357Z,95.24
2018-01-26T04:30:19.042Z,95.34
2018-01-26T04:32:46.489Z,95.30
2018-01-26T04:35:13.954Z,95.34
2018-01-26T04:37:41.412Z,95.35
2018-01-26T04:40:08.851Z,95.50
2018-01-26T04:42:36.626Z,95.67
2018-01-26T04:45:04.071Z,95.89
2018-01-26T04:47:31.517Z,96.35
2018-01-26T04:49:58.977Z,96.00
2018-01-26T04:52:26.421Z,96.39
2018-01-26T04:54:54.034Z,96.22
2018-01-26T04:57:21.472Z,96.63
2018-01-26T04:59:48.908Z,96.93
2018-01-26T05:02:16.365Z,96.50
2018-01-26T05:04:43.801Z,96.53
2018-01-26T05:07:11.277Z,96.09
2018-01-26T05:09:38.724Z,95.92
2018-01-26T05:12:06.158Z,95.99
2018-01-26T05:14:33.624Z,95.66
2018-01-26T05:17:01.061Z,96.09
2018-01-26T05:19:28.541Z,95.88
2018-01-26T05:21:56.010Z,95.94
2018-01-26T05:24:23.452Z,95.99
2018-01-26T05:26:50.905Z,95.80
2018-01-26T05:29:18.356Z,95.56
2018-01-26T05:31:46.153Z,95.57
2018-01-26T05:34:13.584Z,95.72
2018-01-26T05:36:41.089Z,95.98
2018-01-26T05:39:08.604Z,95.93
2018-01-26T05:41:36.049Z,95.89
2018-01-26T05:44:03.773Z,95.56
2018-01-26T05:46:31.209Z,95.44
2018-01-26T05:48:58.648Z,94.31
2018-01-26T05:51:26.109Z,93.12
2018-01-26T05:53:53.832Z,93.70
2018-01-26T05:56:21.448Z,94.61
2018-01-26T05:58:48.894Z,94.63
2018-01-26T06:01:16.333Z,95.32
2018-01-26T06:03:43.793Z,95.25
2018-01-26T06:06:11.330Z,95.13
2018-01-26T06:08:39.036Z,95.29
2018-01-26T06:11:06.477Z,95.39
2018-01-26T06:13:33.913Z,95.51
2018-01-26T06:16:01.373Z,95.44
2018-01-26T06:18:28.809Z,95.94
2018-01-26T06:20:56.432Z,95.88
2018-01-26T06:23:23.871Z,95.93
2018-01-26T06:25:51.308Z,96.22
2018-01-26T06:28:18.808Z,95.50
2018-01-26T06:30:46.250Z,94.84
2018-01-26T06:33:13.736Z,94.89
2018-01-26T06:35:41.193Z,95.18
2018-01-26T06:38:08.655Z,95.16
2018-01-26T06:40:36.126Z,95.09
2018-01-26T06:43:03.564Z,95.13
2018-01-26T06:45:31.038Z,95.17
2018-01-26T06:47:58.501Z,94.93
2018-01-26T06:50:26.137Z,95.14
2018-01-26T06:52:53.608Z,95.18
2018-01-26T06:55:21.074Z,95.18
2018-01-26T06:57:48.520Z,95.12
2018-01-26T07:00:16.053Z,94.96
2018-01-26T07:02:43.520Z,95.15
2018-01-26T07:05:10.959Z,95.60
2018-01-26T07:07:38.423Z,95.32
2018-01-26T07:10:05.873Z,95.06
2018-01-26T07:12:33.322Z,95.13
2018-01-26T07:15:00.785Z,95.66
2018-01-26T07:17:28.233Z,95.98
2018-01-26T07:19:55.701Z,95.73
2018-01-26T07:22:23.157Z,95.34
2018-01-26T07:24:50.618Z,95.43
2018-01-26T07:27:18.060Z,94.79
2018-01-26T07:29:45.521Z,94.62
2018-01-26T07:32:12.957Z,94.91
2018-01-26T07:34:40.416Z,95.30
2018-01-26T07:37:07.873Z,95.02
2018-01-26T07:39:35.320Z,94.82
2018-01-26T07:42:02.777Z,94.96
2018-01-26T07:44:30.245Z,95.03
2018-01-26T07:46:57.677Z,95.41
2018-01-26T07:49:25.113Z,95.35
2018-01-26T07:51:52.620Z,95.51
2018-01-26T07:54:20.029Z,95.85
2018-01-26T07:56:47.501Z,95.62
2018-01-26T07:59:14.996Z,96.27
2018-01-26T08:01:43.333Z,95.68
2018-01-26T08:04:10.776Z,95.56
2018-01-26T08:06:38.258Z,95.30
2018-01-26T08:09:05.701Z,95.49
2018-01-26T08:14:06.077Z,95.14
2018-01-26T08:16:33.513Z,95.29
2018-01-26T08:19:00.972Z,95.66
2018-01-26T08:21:28.432Z,95.39
2018-01-26T08:23:55.889Z,95.30
2018-01-26T08:26:23.341Z,95.54
2018-01-26T08:28:50.781Z,95.69
2018-01-26T08:31:18.216Z,95.81
2018-01-26T08:33:45.685Z,94.98
2018-01-26T08:36:13.128Z,94.57
2018-01-26T08:38:40.573Z,94.20
2018-01-26T08:41:08.035Z,94.07
2018-01-26T08:43:35.468Z,93.06
2018-01-26T08:46:02.926Z,93.28
2018-01-26T08:48:30.441Z,93.25
2018-01-26T08:50:57.865Z,93.38
2018-01-26T08:53:25.308Z,93.60
2018-01-26T08:55:52.772Z,93.88
2018-01-26T08:58:20.213Z,93.71
2018-01-26T09:00:47.665Z,93.92
2018-01-26T09:03:15.517Z,93.54
2018-01-26T09:05:42.953Z,94.84
2018-01-26T09:08:10.388Z,94.83
2018-01-26T09:10:38.109Z,94.53
2018-01-26T09:13:05.545Z,94.22
2018-01-26T09:15:32.981Z,92.11
2018-01-26T09:18:00.765Z,92.74
2018-01-26T09:20:28.209Z,92.33
2018-01-26T09:22:55.657Z,91.93
2018-01-26T09:25:23.168Z,89.96
2018-01-26T09:27:50.604Z,90.44
2018-01-26T09:30:18.038Z,90.25
2018-01-26T09:32:45.525Z,90.48
2018-01-26T09:35:13.011Z,90.21
2018-01-26T09:37:40.472Z,90.87
2018-01-26T09:40:08.073Z,91.33
2018-01-26T09:42:35.518Z,90.14
2018-01-26T09:45:02.966Z,89.60
2018-01-26T09:47:30.655Z,88.91
2018-01-26T09:49:58.102Z,89.72
2018-01-26T09:52:25.536Z,89.27
2018-01-26T09:54:53.005Z,89.08
2018-01-26T09:57:20.642Z,88.20
2018-01-26T09:59:48.073Z,89.39
2018-01-26T10:02:16.069Z,89.17
2018-01-26T10:04:43.523Z,89.16
2018-01-26T10:07:10.999Z,89.81
2018-01-26T10:09:38.681Z,89.09
2018-01-26T10:12:06.121Z,89.54
2018-01-26T10:14:33.582Z,90.45
2018-01-26T10:17:01.096Z,89.72
2018-01-26T10:19:28.536Z,88.54
2018-01-26T10:21:55.976Z,88.29
2018-01-26T10:24:23.557Z,88.24
2018-01-26T10:26:50.992Z,87.48
2018-01-26T10:29:18.437Z,88.52
2018-01-26T10:31:46.116Z,87.03
2018-01-26T10:34:13.557Z,86.08
2018-01-26T10:36:40.992Z,86.86
2018-01-26T10:39:08.778Z,87.45
2018-01-26T10:41:36.213Z,87.08
2018-01-26T10:44:03.649Z,86.79
2018-01-26T10:46:31.465Z,86.11
2018-01-26T10:48:58.925Z,86.70
2018-01-26T10:51:26.368Z,87.38
2018-01-26T10:53:54.027Z,84.02
2018-01-26T10:56:21.473Z,84.12
2018-01-26T10:58:52.833Z,84.00
2018-01-26T11:01:20.342Z,84.69
2018-01-26T11:03:47.785Z,85.43
2018-01-26T11:06:15.277Z,83.22
2018-01-26T11:08:42.736Z,83.57
2018-01-26T11:11:10.192Z,84.40
2018-01-26T11:13:37.633Z,83.33
2018-01-26T11:16:05.095Z,83.86
2018-01-26T11:18:33.001Z,82.67
2018-01-26T11:21:00.490Z,82.68
2018-01-26T11:23:27.950Z,86.12
2018-01-26T11:25:55.572Z,84.37
2018-01-26T11:28:23.013Z,84.13
2018-01-26T11:30:50.488Z,85.60
2018-01-26T11:33:17.929Z,85.39
2018-01-26T11:35:45.381Z,87.02
2018-01-26T11:38:12.876Z,85.93
2018-01-26T11:40:40.317Z,83.06
2018-01-26T11:43:07.762Z,84.49
2018-01-26T11:45:35.427Z,84.29
2018-01-26T11:48:02.987Z,82.72
2018-01-26T11:50:30.428Z,85.16
2018-01-26T11:52:58.101Z,84.45
2018-01-26T11:55:25.540Z,83.99
2018-01-26T11:57:53.029Z,81.53
2018-01-26T12:00:20.506Z,80.54
2018-01-26T12:02:47.984Z,77.69
2018-01-26T12:05:16.156Z,80.26
2018-01-26T12:07:43.969Z,82.82
2018-01-26T12:10:11.409Z,82.24
2018-01-26T12:12:38.865Z,82.52
2018-01-26T12:15:06.501Z,81.96
2018-01-26T12:17:33.949Z,82.70
2018-01-26T12:20:01.393Z,81.20
2018-01-26T12:22:28.871Z,81.75
2018-01-26T12:24:56.319Z,82.39
2018-01-26T12:27:23.761Z,81.97
2018-01-26T12:29:51.241Z,83.23
2018-01-26T12:32:18.685Z,81.20
2018-01-26T12:34:46.157Z,83.03
2018-01-26T12:37:13.766Z,81.99
2018-01-26T12:39:41.214Z,83.16
2018-01-26T12:42:08.653Z,83.30
2018-01-26T12:44:36.432Z,81.57
2018-01-26T12:47:03.940Z,80.35
2018-01-26T12:49:31.382Z,79.47
2018-01-26T12:51:59.209Z,80.77
2018-01-26T12:54:26.666Z,80.29
2018-01-26T12:56:54.113Z,82.21
2018-01-26T12:59:21.889Z,83.17
2018-01-26T13:01:49.339Z,82.17
2018-01-26T13:04:16.777Z,80.83
2018-01-26T13:06:44.460Z,79.88
2018-01-26T13:09:11.931Z,79.93
2018-01-26T13:11:39.418Z,80.70
2018-01-26T13:14:07.048Z,80.96
2018-01-26T13:16:34.497Z,79.42
2018-01-26T13:19:01.937Z,80.68
2018-01-26T13:21:29.439Z,81.12
2018-01-26T13:23:56.881Z,81.24
2018-01-26T13:26:24.325Z,82.32
2018-01-26T13:28:51.797Z,81.52
2018-01-26T13:31:19.288Z,81.59
2018-01-26T13:33:46.717Z,81.72
2018-01-26T13:36:14.341Z,82.15
2018-01-26T13:38:41.783Z,82.44
2018-01-26T13:41:09.221Z,81.62
2018-01-26T13:43:36.713Z,80.33
2018-01-26T13:46:04.153Z,80.46
2018-01-26T13:48:31.785Z,81.82
2018-01-26T13:50:59.960Z,82.44
2018-01-26T13:53:27.405Z,82.23
2018-01-26T13:55:55.007Z,81.53
2018-01-26T13:58:22.357Z,83.14
2018-01-26T14:00:49.797Z,85.28
2018-01-26T14:03:17.278Z,86.33
2018-01-26T14:05:45.402Z,86.23
2018-01-26T14:08:12.845Z,83.71
2018-01-26T14:10:40.304Z,83.96
2018-01-26T14:13:07.748Z,85.36
2018-01-26T14:15:35.407Z,83.40
2018-01-26T14:18:02.856Z,83.13
2018-01-26T14:20:30.297Z,84.27
2018-01-26T14:22:57.762Z,85.04
2018-01-26T14:25:25.219Z,84.49
2018-01-26T14:27:52.747Z,84.71
2018-01-26T14:30:20.186Z,85.97
2018-01-26T14:32:47.621Z,85.80
2018-01-26T14:35:15.077Z,85.66
2018-01-26T14:37:42.552Z,85.59
2018-01-26T14:40:10.200Z,85.20
2018-01-26T14:42:37.647Z,84.14
2018-01-26T14:45:05.084Z,83.54
2018-01-26T14:47:32.545Z,83.29
2018-01-26T14:50:00.017Z,82.63
2018-01-26T14:52:27.773Z,85.40
2018-01-26T14:54:55.228Z,85.57
2018-01-26T14:57:22.693Z,85.41
2018-01-26T14:59:50.213Z,84.02
2018-01-26T15:02:17.664Z,86.60
2018-01-26T15:04:45.348Z,86.88
2018-01-26T15:07:12.785Z,87.02
2018-01-26T15:09:40.267Z,87.31
2018-01-26T15:12:07.725Z,87.88
2018-01-26T15:14:35.169Z,87.79
2018-01-26T15:17:02.829Z,85.92
2018-01-26T15:19:30.264Z,86.97
2018-01-26T15:21:57.701Z,88.47
2018-01-26T15:24:25.156Z,89.71
2018-01-26T15:26:52.605Z,90.33
2018-01-26T15:29:20.429Z,90.42
2018-01-26T15:31:47.864Z,91.65
2018-01-26T15:34:15.401Z,91.83
2018-01-26T15:36:42.860Z,92.21
2018-01-26T15:39:10.295Z,91.61
2018-01-26T15:41:38.515Z,92.64
2018-01-26T15:44:05.998Z,92.00
2018-01-26T15:46:33.433Z,92.52
2018-01-26T15:49:00.905Z,93.11
2018-01-26T15:51:28.341Z,93.55
2018-01-26T15:53:56.007Z,93.55
2018-01-26T15:56:23.620Z,93.91
2018-01-26T15:58:51.061Z,93.63
2018-01-26T16:01:18.530Z,93.44
2018-01-26T16:03:45.969Z,93.95
2018-01-26T16:06:13.839Z,92.96
2018-01-26T16:08:41.319Z,91.99
2018-01-26T16:11:08.764Z,91.96
2018-01-26T16:13:36.218Z,92.69
2018-01-26T16:16:03.661Z,92.09
2018-01-26T16:18:31.429Z,92.55
2018-01-26T16:21:02.816Z,92.77
2018-01-26T16:23:30.258Z,92.67
2018-01-26T16:25:57.714Z,92.98
2018-01-26T16:28:25.170Z,93.35
2018-01-26T16:30:52.969Z,93.67
2018-01-26T16:33:20.409Z,93.44
2018-01-26T16:35:47.847Z,90.62
2018-01-26T16:38:15.306Z,90.90
2018-01-26T16:40:42.749Z,91.37
2018-01-26T16:43:10.365Z,92.03
2018-01-26T16:45:37.861Z,92.24
2018-01-26T16:48:05.305Z,92.30
2018-01-26T16:50:32.775Z,92.59
2018-01-26T16:53:00.212Z,92.76
2018-01-26T16:55:27.673Z,92.81
2018-01-26T16:57:56.125Z,92.08
2018-01-26T17:00:23.561Z,92.23
2018-01-26T17:02:51.020Z,91.89
2018-01-26T17:05:18.473Z,92.06
2018-01-26T17:07:45.956Z,92.90
2018-01-26T17:10:13.597Z,92.69
2018-01-26T17:12:41.084Z,92.54
2018-01-26T17:15:08.549Z,93.11
2018-01-26T17:17:36.001Z,92.61
2018-01-26T17:20:03.640Z,93.35
2018-01-26T17:22:31.080Z,93.39
2018-01-26T17:24:58.513Z,93.30
2018-01-26T17:27:26.009Z,93.79
2018-01-26T17:29:53.444Z,93.76
2018-01-26T17:32:20.917Z,93.92
2018-01-26T17:34:48.364Z,93.97
2018-01-26T17:37:15.801Z,93.54
2018-01-26T17:39:43.276Z,94.05
2018-01-26T17:42:10.713Z,94.48
2018-01-26T17:44:38.410Z,94.13
2018-01-26T17:47:05.848Z,94.10
2018-01-26T17:49:33.300Z,93.71
2018-01-26T17:52:00.769Z,93.21
2018-01-26T17:54:28.352Z,92.91
2018-01-26T17:56:56.021Z,93.49
2018-01-26T17:59:23.518Z,94.00
2018-01-26T18:01:51.332Z,94.05
2018-01-26T18:04:18.857Z,94.21
2018-01-26T18:06:46.331Z,94.03
2018-01-26T18:09:13.989Z,93.97
2018-01-26T18:11:41.432Z,94.22
2018-01-26T18:14:08.877Z,94.01
2018-01-26T18:16:36.691Z,94.04
2018-01-26T18:19:04.474Z,93.75
2018-01-26T18:21:32.285Z,92.92
2018-01-26T18:24:00.158Z,92.65
2018-01-26T18:26:27.742Z,93.65
2018-01-26T18:28:55.483Z,93.85
2018-01-26T18:31:23.056Z,93.29
2018-01-26T18:33:50.837Z,92.67
2018-01-26T18:36:18.351Z,93.61
2018-01-26T18:38:46.103Z,94.21
2018-01-26T18:41:13.741Z,94.10
2018-01-26T18:43:41.256Z,93.69
2018-01-26T18:46:10.618Z,93.96
2018-01-26T18:48:38.101Z,94.12
2018-01-26T18:51:05.881Z,94.33
2018-01-26T18:53:33.498Z,94.70
2018-01-26T18:56:01.041Z,93.96
2018-01-26T18:58:28.930Z,94.14
2018-01-26T19:00:56.428Z,94.36
2018-01-26T19:03:23.909Z,93.90
2018-01-26T19:05:51.383Z,94.40
2018-01-26T19:08:18.820Z,94.67
2018-01-26T19:10:46.313Z,94.37
2018-01-26T19:13:13.749Z,94.63
2018-01-26T19:15:41.233Z,95.05
2018-01-26T19:18:08.716Z,94.60
2018-01-26T19:20:36.156Z,94.74
2018-01-26T19:23:03.834Z,94.92
2018-01-26T19:25:31.276Z,94.75
2018-01-26T19:27:58.747Z,94.30
2018-01-26T19:30:26.234Z,94.12
2018-01-26T19:32:53.669Z,94.49
2018-01-26T19:35:21.173Z,94.41
2018-01-26T19:37:48.625Z,94.32
2018-01-26T19:40:16.065Z,94.59
2018-01-26T19:42:43.592Z,94.45
2018-01-26T19:45:11.033Z,94.35
2018-01-26T19:47:38.513Z,94.34
2018-01-26T19:50:06.095Z,94.36
2018-01-26T19:52:33.604Z,94.21
2018-01-26T19:55:01.449Z,94.83
2018-01-26T19:57:28.905Z,94.35
2018-01-26T19:59:56.384Z,94.27
2018-01-26T20:02:23.832Z,94.37
2018-01-26T20:05:09.112Z,94.84
2018-01-26T20:07:43.267Z,94.93
2018-01-26T20:10:11.887Z,94.89
2018-01-26T20:12:44.966Z,94.38
2018-01-26T20:15:12.913Z,94.39
2018-01-26T20:17:40.497Z,94.68
2018-01-26T20:20:07.990Z,94.69
2018-01-26T20:22:35.456Z,94.25
2018-01-26T20:25:02.994Z,94.50
2018-01-26T20:27:30.654Z,94.52
2018-01-26T20:29:58.141Z,93.70
2018-01-26T20:32:25.594Z,93.37
2018-01-26T20:34:53.107Z,94.23
2018-01-26T20:37:20.554Z,94.45
2018-01-26T20:39:48.261Z,93.96
2018-01-26T20:42:15.697Z,94.82
2018-01-26T20:44:43.175Z,94.49
2018-01-26T20:47:10.635Z,94.73
2018-01-26T20:49:38.101Z,94.19
2018-01-26T20:52:05.769Z,93.98
2018-01-26T20:54:33.204Z,94.25
2018-01-26T20:57:00.646Z,94.06
2018-01-26T20:59:28.110Z,93.95
2018-01-26T21:01:55.556Z,93.40
2018-01-26T21:04:23.343Z,93.55
2018-01-26T21:06:51.615Z,93.79
2018-01-26T21:09:19.057Z,93.45
2018-01-26T21:11:46.527Z,93.34
2018-01-26T21:14:13.965Z,94.21
2018-01-26T21:16:41.645Z,93.66
2018-01-26T21:19:09.160Z,93.96
2018-01-26T21:21:36.640Z,93.91
2018-01-26T21:24:04.137Z,94.13
2018-01-26T21:26:31.598Z,94.27
2018-01-26T21:28:59.060Z,94.56
2018-01-26T21:31:26.523Z,94.25
2018-01-26T21:33:54.009Z,94.09
2018-01-26T21:36:21.465Z,93.51
2018-01-26T21:38:48.906Z,93.47
2018-01-26T21:41:16.521Z,93.99
2018-01-26T21:43:43.956Z,94.69
2018-01-26T21:46:11.399Z,94.67
2018-01-26T21:48:38.874Z,94.60
2018-01-26T21:51:06.332Z,94.89
2018-01-26T21:53:34.007Z,94.29
2018-01-26T21:56:01.475Z,94.40
2018-01-26T21:58:28.917Z,94.19
2018-01-26T22:00:56.373Z,94.33
2018-01-26T22:03:23.812Z,94.61
2018-01-26T22:05:51.388Z,94.67
2018-01-26T22:08:18.832Z,94.49
2018-01-26T22:10:46.289Z,94.99
2018-01-26T22:13:13.749Z,94.84
2018-01-26T22:15:41.196Z,95.12
2018-01-26T22:18:08.683Z,95.29
2018-01-26T22:20:36.161Z,95.91
2018-01-26T22:23:04.203Z,95.46
2018-01-26T22:25:31.669Z,94.80
2018-01-26T22:27:59.177Z,95.01
2018-01-26T22:30:26.636Z,95.39
2018-01-26T22:32:54.081Z,94.25
2018-01-26T22:35:21.736Z,94.29
2018-01-26T22:37:49.286Z,94.24
2018-01-26T22:40:16.725Z,94.60
2018-01-26T22:42:44.442Z,94.60
2018-01-26T22:45:11.929Z,95.06
2018-01-26T22:47:39.369Z,95.13
2018-01-26T22:50:06.824Z,95.08
2018-01-26T22:52:34.261Z,94.95
2018-01-26T22:55:01.829Z,94.92
2018-01-26T22:57:29.269Z,94.90
2018-01-26T22:59:56.719Z,94.99
2018-01-26T23:02:24.568Z,94.43
2018-01-26T23:04:52.048Z,95.19
2018-01-26T23:07:19.955Z,95.10
2018-01-26T23:09:47.392Z,94.98
2018-01-26T23:12:14.828Z,94.21
2018-01-26T23:14:42.327Z,94.72
2018-01-26T23:17:09.768Z,94.64
2018-01-26T23:19:37.452Z,94.58
2018-01-26T23:22:04.909Z,93.80
2018-01-26T23:24:32.358Z,93.99
2018-01-26T23:26:59.821Z,93.76
2018-01-26T23:29:27.264Z,93.73
2018-01-26T23:31:54.745Z,94.07
2018-01-26T23:34:22.182Z,93.76
2018-01-26T23:36:49.633Z,93.83
2018-01-26T23:39:17.090Z,93.51
2018-01-26T23:41:44.529Z,93.33
2018-01-26T23:44:12.007Z,93.44
2018-01-26T23:46:39.446Z,93.86
2018-01-26T23:49:06.889Z,94.44
2018-01-26T23:51:34.361Z,94.06
2018-01-26T23:54:01.811Z,93.81
2018-01-26T23:56:29.456Z,93.21
2018-01-26T23:58:56.913Z,92.63
